createdAt,value
2023-03-26T00:01:39.057Z,70.00
2023-03-26T00:06:41.732Z,68.79
2023-03-26T00:11:46.678Z,69.51
2023-03-26T00:16:49.399Z,68.55
2023-03-26T00:21:52.535Z,68.48
2023-03-26T00:26:55.950Z,68.81
2023-03-26T00:31:58.468Z,68.37
2023-03-26T00:37:02.357Z,69.04
2023-03-26T00:42:06.843Z,68.87
2023-03-26T00:47:09.074Z,68.67
2023-03-26T00:52:11.015Z,68.43
2023-03-26T00:57:22.559Z,69.37
2023-03-26T01:02:33.163Z,68.42
2023-03-26T01:07:36.998Z,68.39
2023-03-26T01:12:41.242Z,67.92
2023-03-26T01:17:43.300Z,69.50
2023-03-26T01:22:49.305Z,70.26
2023-03-26T01:27:55.810Z,69.48
2023-03-26T01:33:04.346Z,68.85
2023-03-26T01:38:18.209Z,68.96
2023-03-26T01:43:30.585Z,68.45
2023-03-26T01:48:36.357Z,69.09
2023-03-26T01:53:42.403Z,69.09
2023-03-26T01:59:00.845Z,68.55
2023-03-26T02:04:11.429Z,68.92
2023-03-26T02:09:19.036Z,68.57
2023-03-26T02:14:23.005Z,68.62
2023-03-26T02:19:25.225Z,68.37
2023-03-26T02:24:27.851Z,67.30
2023-03-26T02:29:31.194Z,67.99
2023-03-26T02:34:33.767Z,68.34
2023-03-26T02:39:36.287Z,67.86
2023-03-26T02:44:40.230Z,67.98
2023-03-26T02:49:42.503Z,66.50
2023-03-26T02:54:44.579Z,67.51
2023-03-26T03:00:08.824Z,66.45
2023-03-26T03:10:32.918Z,66.14
2023-03-26T03:27:39.306Z,65.55
2023-03-26T03:32:41.900Z,65.50
2023-03-26T03:37:45.423Z,65.95
2023-03-26T03:43:43.442Z,66.30
2023-03-26T03:48:49.617Z,65.99
2023-03-26T04:00:27.388Z,66.09
2023-03-26T04:12:22.491Z,65.72
2023-03-26T04:17:26.570Z,65.84
2023-03-26T04:22:42.467Z,67.54
2023-03-26T04:27:46.196Z,67.61
2023-03-26T04:39:42.101Z,67.06
2023-03-26T04:45:37.958Z,68.50
2023-03-26T04:50:42.546Z,66.98
2023-03-26T05:02:24.726Z,66.25
2023-03-26T05:08:32.033Z,65.83
2023-03-26T05:13:34.146Z,65.84
2023-03-26T05:19:14.703Z,65.52
2023-03-26T05:35:26.553Z,63.49
2023-03-26T05:40:28.922Z,63.22
2023-03-26T05:51:41.916Z,63.87
2023-03-26T07:02:59.396Z,62.64
2023-03-26T07:08:01.523Z,61.65
2023-03-26T07:13:03.708Z,59.49
2023-03-26T07:18:07.267Z,60.29
2023-03-26T07:23:10.960Z,58.33
2023-03-26T07:28:24.341Z,58.63
2023-03-26T07:33:35.720Z,58.07
2023-03-26T07:38:51.914Z,58.35
2023-03-26T07:44:07.795Z,60.62
2023-03-26T07:49:12.897Z,58.45
2023-03-26T07:54:15.808Z,58.73
2023-03-26T07:59:24.899Z,58.08
2023-03-26T08:04:48.524Z,58.24
2023-03-26T08:10:03.469Z,57.75
2023-03-26T08:15:14.370Z,58.99
2023-03-26T08:20:31.129Z,59.45
2023-03-26T08:25:37.365Z,60.02
2023-03-26T08:30:40.565Z,59.39
2023-03-26T08:35:45.563Z,60.70
2023-03-26T08:41:38.881Z,57.81
2023-03-26T08:47:00.440Z,58.89
2023-03-26T08:52:32.342Z,58.81
2023-03-26T08:57:58.357Z,58.37
2023-03-26T09:03:17.625Z,56.90
2023-03-26T09:09:05.991Z,57.47
2023-03-26T09:14:46.340Z,56.28
2023-03-26T09:20:48.420Z,57.47
2023-03-26T09:26:28.164Z,57.69
2023-03-26T09:31:59.601Z,56.74
2023-03-26T09:37:24.579Z,56.13
2023-03-26T09:42:37.784Z,55.67
2023-03-26T09:48:07.596Z,52.87
2023-03-26T09:53:28.165Z,53.38
2023-03-26T09:58:46.110Z,51.89
2023-03-26T10:03:59.412Z,50.40
2023-03-26T10:09:20.519Z,49.33
2023-03-26T10:14:32.484Z,52.35
2023-03-26T10:19:56.407Z,51.00
2023-03-26T10:25:21.833Z,53.23
2023-03-26T10:30:48.415Z,51.38
2023-03-26T10:36:02.256Z,51.60
2023-03-26T10:41:13.245Z,48.34
2023-03-26T10:46:41.607Z,49.20
2023-03-26T10:51:51.466Z,50.67
2023-03-26T10:56:56.062Z,48.82
2023-03-26T11:02:20.850Z,47.92
2023-03-26T11:07:38.104Z,48.03
2023-03-26T11:12:46.411Z,47.17
2023-03-26T11:17:59.017Z,47.40
2023-03-26T11:23:23.213Z,46.96
2023-03-26T11:29:03.065Z,49.82
2023-03-26T11:34:13.066Z,49.46
2023-03-26T11:39:21.065Z,49.60
2023-03-26T11:44:28.194Z,52.19
2023-03-26T11:49:30.800Z,49.70
2023-03-26T11:54:33.640Z,48.25
2023-03-26T11:59:49.046Z,49.29
2023-03-26T12:05:14.688Z,49.31
2023-03-26T12:10:33.167Z,48.98
2023-03-26T12:15:42.995Z,48.04
2023-03-26T12:20:45.055Z,46.51
2023-03-26T12:26:05.462Z,44.57
2023-03-26T12:31:17.900Z,44.37
2023-03-26T12:36:24.687Z,45.16
2023-03-26T12:44:43.362Z,42.39
2023-03-26T12:47:58.582Z,44.43
2023-03-26T12:52:59.831Z,44.42
2023-03-26T12:58:13.756Z,44.60
2023-03-26T13:03:30.709Z,45.72
2023-03-26T13:08:52.324Z,44.22
2023-03-26T13:14:06.171Z,46.79
2023-03-26T13:19:15.939Z,44.88
2023-03-26T13:24:31.357Z,44.28
2023-03-26T13:29:43.137Z,43.70
2023-03-26T13:35:02.797Z,42.73
2023-03-26T13:40:22.228Z,42.63
2023-03-26T13:45:41.922Z,41.23
2023-03-26T13:50:52.364Z,41.33
2023-03-26T13:55:56.840Z,42.62
2023-03-26T14:01:05.238Z,43.42
2023-03-26T14:06:16.686Z,43.03
2023-03-26T14:11:24.248Z,43.37
2023-03-26T14:16:33.543Z,45.18
2023-03-26T14:21:48.089Z,43.97
2023-03-26T14:27:18.527Z,44.57
2023-03-26T14:32:42.152Z,46.32
2023-03-26T14:38:07.122Z,46.28
2023-03-26T14:43:35.384Z,45.53
2023-03-26T14:48:50.320Z,45.44
2023-03-26T14:53:58.922Z,44.96
2023-03-26T14:59:46.371Z,44.44
2023-03-26T15:05:24.573Z,44.39
2023-03-26T15:10:52.193Z,47.61
2023-03-26T15:16:20.826Z,47.24
2023-03-26T15:21:54.479Z,48.06
2023-03-26T15:27:24.385Z,46.96
2023-03-26T15:32:58.281Z,47.57
2023-03-26T15:38:50.774Z,48.65
2023-03-26T15:44:24.059Z,47.21
2023-03-26T15:49:40.077Z,47.25
2023-03-26T15:54:52.056Z,48.08
2023-03-26T16:00:15.215Z,49.64
2023-03-26T16:05:33.035Z,49.46
2023-03-26T16:10:44.543Z,49.67
2023-03-26T16:15:55.917Z,47.47
2023-03-26T16:21:36.439Z,47.04
2023-03-26T16:26:47.305Z,47.78
2023-03-26T16:32:13.691Z,46.29
2023-03-26T16:37:36.241Z,47.10
2023-03-26T16:42:41.590Z,47.99
2023-03-26T16:47:51.515Z,48.76
2023-03-26T16:53:02.005Z,47.96
2023-03-26T16:58:12.362Z,47.21
2023-03-26T17:03:43.593Z,50.37
2023-03-26T17:08:57.298Z,49.16
2023-03-26T17:14:12.009Z,49.34
2023-03-26T17:19:29.633Z,52.18
2023-03-26T17:24:42.816Z,53.55
2023-03-26T17:30:03.809Z,52.50
2023-03-26T17:35:09.413Z,52.88
2023-03-26T17:40:48.920Z,52.02
2023-03-26T17:46:03.180Z,53.60
2023-03-26T17:51:27.669Z,51.95
2023-03-26T17:56:32.353Z,54.70
2023-03-26T18:01:37.041Z,57.52
2023-03-26T18:06:58.866Z,55.91
2023-03-26T18:12:09.221Z,57.26
2023-03-26T18:17:12.055Z,57.42
2023-03-26T18:22:20.015Z,57.88
2023-03-26T18:27:23.625Z,58.33
2023-03-26T18:32:30.818Z,57.71
2023-03-26T18:37:36.064Z,57.74
2023-03-26T18:42:40.314Z,59.19
2023-03-26T18:47:43.401Z,61.30
2023-03-26T18:52:46.842Z,63.69
2023-03-26T18:57:51.212Z,63.95
2023-03-26T19:03:01.720Z,66.15
2023-03-26T19:08:06.692Z,69.73
2023-03-26T19:13:13.228Z,71.31
2023-03-26T19:18:19.041Z,74.17
2023-03-26T19:23:26.538Z,78.46
2023-03-26T19:28:31.774Z,79.35
2023-03-26T19:33:36.940Z,83.03
2023-03-26T19:38:47.019Z,84.55
2023-03-26T19:43:50.491Z,85.60
2023-03-26T19:48:54.328Z,86.20
2023-03-26T19:54:00.746Z,87.08
2023-03-26T19:59:02.934Z,87.88
2023-03-26T20:04:06.790Z,89.10
2023-03-26T20:09:11.145Z,89.81
2023-03-26T20:14:16.404Z,90.62
2023-03-26T20:19:19.241Z,90.67
2023-03-26T20:24:24.685Z,89.74
2023-03-26T20:29:28.626Z,90.07
2023-03-26T20:34:32.027Z,90.24
2023-03-26T20:39:35.345Z,90.16
2023-03-26T20:44:37.762Z,89.35
2023-03-26T20:49:40.323Z,89.89
2023-03-26T20:54:43.708Z,89.54
2023-03-26T20:59:45.804Z,88.93
2023-03-26T21:04:48.143Z,89.34
2023-03-26T21:09:52.151Z,90.44
2023-03-26T21:14:55.920Z,90.83
2023-03-26T21:20:06.475Z,90.06
2023-03-26T21:25:25.693Z,91.28
2023-03-26T21:30:28.165Z,91.96
2023-03-26T21:35:31.204Z,92.50
2023-03-26T21:40:35.401Z,92.20
2023-03-26T21:45:38.707Z,91.59
2023-03-26T21:50:41.291Z,92.99
2023-03-26T21:55:57.372Z,93.66
2023-03-26T22:01:16.633Z,93.20
2023-03-26T22:06:25.056Z,93.76
2023-03-26T22:11:28.451Z,93.21
2023-03-26T22:16:30.755Z,91.44
2023-03-26T22:21:33.749Z,90.42
2023-03-26T22:26:37.583Z,92.13
2023-03-26T22:31:41.086Z,91.80
2023-03-26T22:36:43.136Z,92.89
2023-03-26T22:41:46.460Z,92.33
2023-03-26T22:46:51.087Z,92.09
2023-03-26T22:51:53.134Z,92.70
2023-03-26T22:56:56.609Z,93.42
2023-03-26T23:01:58.704Z,100.00
2023-03-26T23:07:00.793Z,100.00
2023-03-26T23:12:04.838Z,90.36
2023-03-26T23:17:07.115Z,92.07
2023-03-26T23:22:09.573Z,92.06
2023-03-26T23:27:12.887Z,93.20
2023-03-26T23:32:24.324Z,93.11
2023-03-26T23:37:29.340Z,92.97
2023-03-26T23:42:34.462Z,93.67
2023-03-26T23:47:37.261Z,93.79
2023-03-26T23:52:39.348Z,94.44
2023-03-26T23:57:43.180Z,94.58
